^^
Meteo Knjazevac Station Historical Data
Daily Summary for July 9, 2021 Units:  English    Metric   Both
Daily Weekly Monthly Yearly Custom
  High: Low: Average:
Temperature: 40 °F 26.1 °F 32.6 °F
Dew Point: 36.7 °F 25.8 °F 31.6 °F
Humidity: 99% 88% 96%
Wind Speed: 7mph 0mph 2.5mph
Wind Gust: 15mph - -
Wind- - SE
Pressure: 29.88 in 29.78 in -
Precipitation: 0.01 in    
Historical Graphs
 
 
Tabular Data for July 9, 2021
Time Temperature Dew Point Pressure Wind Wind Speed Wind Gust Humidity Rainfall Rate (Hourly) solar Conditions
00:00 26.4 °F 25.9 °F 29.88 in WNW 2 mph 4 mph 98% 0.00 in 0 W/m2
00:10 26.4 °F 25.9 °F 29.87 in WNW 2 mph 3 mph 98% 0.00 in 0 W/m2
00:20 26.2 °F 25.8 °F 29.88 in WNW 3 mph 4 mph 98% 0.00 in 0 W/m2
00:30 26.4 °F 26.2 °F 29.87 in NW 2 mph 5 mph 99% 0.00 in 0 W/m2
00:40 26.6 °F 26.4 °F 29.86 in NW 3 mph 5 mph 99% 0.00 in 0 W/m2
00:50 27.3 °F 27.1 °F 29.86 in SSW 5 mph 11 mph 99% 0.00 in 0 W/m2
01:00 28 °F 27.5 °F 29.86 in WSW 3 mph 10 mph 98% 0.00 in 0 W/m2
01:10 28 °F 27.5 °F 29.86 in WNW 1 mph 6 mph 98% 0.00 in 0 W/m2
01:20 27.7 °F 27.2 °F 29.86 in NW 3 mph 5 mph 98% 0.00 in 0 W/m2
01:30 27.7 °F 27.2 °F 29.86 in North 2 mph 5 mph 98% 0.00 in 0 W/m2
01:40 27.3 °F 26.8 °F 29.87 in WNW 3 mph 5 mph 98% 0.00 in 0 W/m2
01:50 27.3 °F 26.8 °F 29.86 in NW 2 mph 5 mph 98% 0.00 in 0 W/m2
02:00 27.5 °F 27 °F 29.86 in NNW 2 mph 3 mph 98% 0.00 in 0 W/m2
02:10 27.1 °F 26.7 °F 29.86 in NW 1 mph 4 mph 98% 0.00 in 0 W/m2
02:20 27 °F 26.5 °F 29.86 in Calm   3 mph 98% 0.00 in 0 W/m2
02:30 26.8 °F 26.3 °F 29.86 in NW 1 mph 3 mph 98% 0.00 in 0 W/m2
02:40 26.6 °F 26.1 °F 29.85 in NW 1 mph 4 mph 98% 0.00 in 0 W/m2
02:50 26.4 °F 25.9 °F 29.85 in WNW 3 mph 6 mph 98% 0.00 in 0 W/m2
03:00 26.4 °F 25.9 °F 29.85 in NW 2 mph 5 mph 98% 0.00 in 0 W/m2
03:10 26.2 °F 25.8 °F 29.85 in WNW 2 mph 3 mph 98% 0.00 in 0 W/m2
03:20 26.2 °F 25.8 °F 29.85 in Calm   3 mph 98% 0.00 in 0 W/m2
03:30 26.1 °F 25.8 °F 29.85 in NNW 2 mph 4 mph 99% 0.00 in 0 W/m2
03:40 26.2 °F 26 °F 29.85 in NW 2 mph 3 mph 99% 0.00 in 0 W/m2
03:50 26.1 °F 25.8 °F 29.85 in NW 1 mph 3 mph 99% 0.00 in 0 W/m2
04:00 26.6 °F 26.4 °F 29.85 in NNW 2 mph 5 mph 99% 0.00 in 0 W/m2
04:10 27.1 °F 26.9 °F 29.85 in Calm   4 mph 99% 0.00 in 0 W/m2
04:20 26.6 °F 26.4 °F 29.85 in NW 1 mph 3 mph 99% 0.00 in 0 W/m2
04:30 26.4 °F 26.2 °F 29.85 in NNE 1 mph 7 mph 99% 0.00 in 0 W/m2
04:40 26.8 °F 26.5 °F 29.84 in SE 2 mph 9 mph 99% 0.00 in 0 W/m2
04:50 27.1 °F 26.9 °F 29.85 in Calm   4 mph 99% 0.00 in 0 W/m2
05:00 26.8 °F 26.5 °F 29.84 in WNW 1 mph 5 mph 99% 0.00 in 0 W/m2
05:10 27 °F 26.7 °F 29.84 in NNW 2 mph 4 mph 99% 0.00 in 0 W/m2
05:20 27.2 °F 26.9 °F 29.84 in North 3 mph 5 mph 99% 0.00 in 0 W/m2
05:30 28.2 °F 28 °F 29.84 in North 1 mph 6 mph 99% 0.00 in 0 W/m2
05:40 28.4 °F 28.2 °F 29.84 in NNW 1 mph 4 mph 99% 0.00 in 0 W/m2
05:50 28.6 °F 28.3 °F 29.85 in NNW 2 mph 6 mph 99% 0.00 in 0 W/m2
06:00 28.9 °F 28.7 °F 29.85 in Calm   5 mph 99% 0.00 in 0 W/m2
06:10 28.9 °F 28.7 °F 29.85 in SE 5 mph 12 mph 99% 0.00 in 0 W/m2
06:20 29.1 °F 28.9 °F 29.84 in SSE 1 mph 12 mph 99% 0.00 in 0 W/m2
06:30 30 °F 29.8 °F 29.85 in ESE 3 mph 10 mph 99% 0.00 in 0 W/m2
06:40 30.9 °F 30.7 °F 29.85 in SE 1 mph 12 mph 99% 0.00 in 0 W/m2
06:50 31.3 °F 30.8 °F 29.85 in NNE 2 mph 3 mph 98% 0.00 in 0 W/m2
07:00 31.3 °F 30.8 °F 29.85 in NNE 1 mph 5 mph 98% 0.00 in 6 W/m2
07:10 30.9 °F 29.9 °F 29.85 in NNE 1 mph 6 mph 96% 0.00 in 8 W/m2
07:20 30.7 °F 30.2 °F 29.84 in NNE 1 mph 6 mph 98% 0.00 in 23 W/m2
07:30 30.7 °F 30.2 °F 29.84 in Calm   3 mph 98% 0.00 in 39 W/m2
07:40 30.7 °F 30.2 °F 29.84 in NE 1 mph 3 mph 98% 0.00 in 47 W/m2
07:50 30.7 °F 30.2 °F 29.84 in WNW 1 mph 2 mph 98% 0.00 in 69 W/m2
08:00 31 °F 30.5 °F 29.84 in NW 1 mph 3 mph 98% 0.00 in 85 W/m2
08:10 31.5 °F 31 °F 29.84 in North 3 mph 6 mph 98% 0.00 in 96 W/m2
08:20 32 °F 31.5 °F 29.84 in NNE 2 mph 6 mph 98% 0.00 in 120 W/m2
08:30 32.5 °F 32 °F 29.85 in NNW 1 mph 5 mph 98% 0.00 in 103 W/m2
08:40 32.9 °F 32.4 °F 29.85 in Calm   6 mph 98% 0.00 in 91 W/m2
08:50 33.3 °F 32.8 °F 29.85 in Calm   5 mph 98% 0.00 in 188 W/m2
09:00 33.8 °F 33.3 °F 29.85 in NNE 3 mph 7 mph 98% 0.00 in 125 W/m2
09:10 34 °F 33 °F 29.84 in NNE 7 mph 10 mph 96% 0.00 in 110 W/m2
09:20 34 °F 32.7 °F 29.85 in NNE 7 mph 10 mph 95% 0.00 in 103 W/m2
09:30 34 °F 32.7 °F 29.85 in NNE 5 mph 9 mph 95% 0.00 in 119 W/m2
09:40 34 °F 32.7 °F 29.85 in NNE 1 mph 6 mph 95% 0.00 in 123 W/m2
09:50 34 °F 32.7 °F 29.85 in NNE 5 mph 6 mph 95% 0.00 in 136 W/m2
10:00 34.3 °F 33.1 °F 29.84 in NNE 5 mph 10 mph 95% 0.00 in 181 W/m2
10:10 34.5 °F 33.2 °F 29.84 in NNE 3 mph 10 mph 95% 0.00 in 164 W/m2
10:20 34.7 °F 33.2 °F 29.84 in NNE 7 mph 9 mph 94% 0.00 in 171 W/m2
10:30 34.9 °F 33.3 °F 29.84 in NNE 1 mph 9 mph 94% 0.00 in 175 W/m2
10:40 35.1 °F 33.5 °F 29.83 in NNE 2 mph 7 mph 94% 0.00 in 175 W/m2
10:50 35.4 °F 33.9 °F 29.83 in North 5 mph 7 mph 94% 0.00 in 199 W/m2
11:00 36.2 °F 34.6 °F 29.83 in North 3 mph 6 mph 94% 0.00 in 333 W/m2
11:10 37.3 °F 35.7 °F 29.83 in NNE 5 mph 12 mph 94% 0.00 in 335 W/m2
11:20 37.9 °F 35.5 °F 29.84 in NNE 5 mph 9 mph 91% 0.00 in 276 W/m2
11:30 38.2 °F 35.8 °F 29.83 in NNE 5 mph 9 mph 91% 0.00 in 336 W/m2
11:40 38.5 °F 35.8 °F 29.83 in North 2 mph 12 mph 90% 0.00 in 321 W/m2
11:50 38.5 °F 35.8 °F 29.83 in North 5 mph 11 mph 90% 0.00 in 276 W/m2
12:00 38.8 °F 36.2 °F 29.83 in North 5 mph 10 mph 90% 0.00 in 320 W/m2
12:10 39 °F 36.1 °F 29.82 in North 6 mph 12 mph 89% 0.00 in 293 W/m2
12:20 39.2 °F 36.2 °F 29.82 in North 5 mph 12 mph 89% 0.00 in 286 W/m2
12:30 39.4 °F 36.4 °F 29.81 in North 3 mph 10 mph 89% 0.00 in 303 W/m2
12:40 39.6 °F 36.6 °F 29.81 in NNE 7 mph 12 mph 89% 0.00 in 293 W/m2
12:50 40 °F 36.7 °F 29.81 in North 7 mph 13 mph 88% 0.00 in 278 W/m2
13:00 39.9 °F 36.6 °F 29.81 in North 5 mph 12 mph 88% 0.00 in 245 W/m2
13:10 39.7 °F 36.5 °F 29.81 in North 5 mph 12 mph 88% 0.00 in 250 W/m2
13:20 39.6 °F 36.3 °F 29.81 in North 7 mph 12 mph 88% 0.00 in 175 W/m2
13:30 39 °F 35.8 °F 29.80 in North 5 mph 12 mph 88% 0.00 in 150 W/m2
13:40 38.5 °F 35.2 °F 29.80 in North 5 mph 12 mph 88% 0.00 in 138 W/m2
13:50 38.1 °F 35.2 °F 29.80 in North 2 mph 12 mph 89% 0.00 in 150 W/m2
14:00 37.8 °F 34.8 °F 29.81 in North 5 mph 9 mph 89% 0.00 in 173 W/m2
14:10 37.6 °F 34.6 °F 29.80 in North 3 mph 13 mph 89% 0.00 in 155 W/m2
14:20 37.2 °F 34.2 °F 29.80 in North 5 mph 14 mph 89% 0.00 in 93 W/m2
14:30 36.6 °F 34 °F 29.81 in North 5 mph 12 mph 90% 0.00 in 69 W/m2
14:40 36.1 °F 33.5 °F 29.81 in North 5 mph 13 mph 90% 0.00 in 62 W/m2
14:50 35.8 °F 33.4 °F 29.80 in North 5 mph 12 mph 91% 0.00 in 46 W/m2
15:00 35.4 °F 33 °F 29.80 in North 3 mph 11 mph 91% 0.00 in 51 W/m2
15:10 35.1 °F 33.2 °F 29.80 in North 5 mph 14 mph 93% 0.00 in 42 W/m2
15:20 34.9 °F 33.1 °F 29.80 in North 5 mph 9 mph 93% 0.00 in 26 W/m2
15:30 34.6 °F 33.1 °F 29.81 in NNE 2 mph 13 mph 94% 0.00 in 11 W/m2
15:40 34.3 °F 32.8 °F 29.81 in North 3 mph 15 mph 94% 0.00 in 12 W/m2
15:50 34.2 °F 32.6 °F 29.80 in North 3 mph 8 mph 94% 0.00 in 4 W/m2
16:00 34 °F 32.4 °F 29.81 in NNW 2 mph 6 mph 94% 0.00 in 0 W/m2
16:10 33.8 °F 32.5 °F 29.81 in North 1 mph 6 mph 95% 0.00 in 0 W/m2
16:20 33.6 °F 32.3 °F 29.81 in North 2 mph 8 mph 95% 0.00 in 0 W/m2
16:30 33.6 °F 32.3 °F 29.81 in North 5 mph 10 mph 95% 0.00 in 0 W/m2
16:40 33.4 °F 32.2 °F 29.80 in NNE 2 mph 7 mph 95% 0.00 in 0 W/m2
16:50 33.3 °F 32 °F 29.81 in Calm   6 mph 95% 0.00 in 0 W/m2
17:00 33.3 °F 32.2 °F 29.81 in North 2 mph 7 mph 96% 0.00 in 0 W/m2
17:10 33.3 °F 32.2 °F 29.80 in NE 1 mph 5 mph 96% 0.00 in 0 W/m2
17:20 33.3 °F 32.2 °F 29.80 in North 1 mph 4 mph 96% 0.00 in 0 W/m2
17:30 33.1 °F 32.1 °F 29.80 in NNW 2 mph 6 mph 96% 0.00 in 0 W/m2
17:40 33.3 °F 32.8 °F 29.80 in NNE 3 mph 7 mph 98% 0.00 in 0 W/m2
17:50 33.3 °F 32.8 °F 29.80 in North 2 mph 8 mph 98% 0.00 in 0 W/m2
18:00 33.3 °F 32.8 °F 29.79 in North 2 mph 7 mph 98% 0.00 in 0 W/m2
18:10 33.4 °F 32.9 °F 29.80 in North 1 mph 11 mph 98% 0.00 in 0 W/m2
18:20 33.4 °F 32.9 °F 29.79 in North 1 mph 6 mph 98% 0.00 in 0 W/m2
18:30 33.6 °F 33.4 °F 29.78 in North 3 mph 7 mph 99% 0.00 in 0 W/m2
18:40 33.6 °F 33.4 °F 29.79 in NNE 2 mph 8 mph 99% 0.00 in 0 W/m2
18:50 33.6 °F 33.4 °F 29.79 in North 2 mph 8 mph 99% 0.00 in 0 W/m2
19:00 33.8 °F 33.5 °F 29.79 in NNW 1 mph 7 mph 99% 0.00 in 0 W/m2
19:10 33.8 °F 33.5 °F 29.79 in NNW 1 mph 6 mph 99% 0.00 in 0 W/m2
19:20 34 °F 33.7 °F 29.79 in North 1 mph 4 mph 99% 0.00 in 0 W/m2
19:30 34 °F 33.7 °F 29.79 in North 3 mph 6 mph 99% 0.00 in 0 W/m2
19:40 34 °F 33.7 °F 29.79 in North 3 mph 5 mph 99% 0.00 in 0 W/m2
19:50 34.1 °F 33.8 °F 29.79 in NNE 2 mph 5 mph 99% 0.00 in 0 W/m2
20:00 34.2 °F 33.9 °F 29.79 in NNE 1 mph 5 mph 99% 0.00 in 0 W/m2
20:10 34.2 °F 33.9 °F 29.79 in NE 1 mph 5 mph 99% 0.00 in 0 W/m2
20:20 34.2 °F 33.9 °F 29.80 in Calm   3 mph 99% 0.00 in 0 W/m2
20:30 34.2 °F 33.9 °F 29.80 in North 2 mph 5 mph 99% 0.00 in 0 W/m2
20:40 34.2 °F 33.9 °F 29.80 in North 3 mph 6 mph 99% 0.00 in 0 W/m2
20:50 34.3 °F 34.1 °F 29.81 in North 1 mph 6 mph 99% 0.00 in 0 W/m2
21:00 34.4 °F 34.2 °F 29.82 in NW 1 mph 4 mph 99% 0.00 in 0 W/m2
21:10 34.5 °F 34.3 °F 29.82 in WNW 1 mph 4 mph 99% 0.00 in 0 W/m2
21:20 34.5 °F 34.3 °F 29.82 in NNE 2 mph 5 mph 99% 0.00 in 0 W/m2
21:30 34.5 °F 34.3 °F 29.82 in NNE 1 mph 5 mph 99% 0.00 in 0 W/m2
21:40 34.3 °F 34.1 °F 29.81 in NNW 1 mph 5 mph 99% 0.00 in 0 W/m2
21:50 34.3 °F 34.1 °F 29.81 in NNW 1 mph 7 mph 99% 0.00 in 0 W/m2
22:00 34.3 °F 34.1 °F 29.82 in North 2 mph 7 mph 99% 0.00 in 0 W/m2
22:10 34.2 °F 33.9 °F 29.82 in North 3 mph 7 mph 99% 0.00 in 0 W/m2
22:20 34.2 °F 33.9 °F 29.82 in NNE 3 mph 7 mph 99% 0.00 in 0 W/m2
22:30 34.2 °F 33.9 °F 29.82 in NNE 3 mph 7 mph 99% 0.00 in 0 W/m2
22:40 34.1 °F 33.8 °F 29.82 in Calm   6 mph 99% 0.01 in 0 W/m2
22:50 34 °F 33.7 °F 29.82 in North 1 mph 5 mph 99% 0.00 in 0 W/m2
23:00 34 °F 33.7 °F 29.82 in NNE 2 mph 7 mph 99% 0.00 in 0 W/m2
23:10 34 °F 33.7 °F 29.81 in North 1 mph 6 mph 99% 0.00 in 0 W/m2
23:20 34 °F 33.7 °F 29.81 in North 2 mph 5 mph 99% 0.00 in 0 W/m2
23:30 34 °F 33.7 °F 29.81 in NNE 1 mph 6 mph 99% 0.00 in 0 W/m2
23:40 33.8 °F 33.5 °F 29.81 in North 1 mph 5 mph 99% 0.00 in 0 W/m2
23:50 33.8 °F 33.5 °F 29.80 in Calm   3 mph 99% 0.00 in 0 W/m2
Knjazevac, Serbia
Compliments of Weather Underground - 2 mb